Time;durP1;ratioP1;P1;durP2;ratioP2;P2;SDS_P1;SDS_P2;PMS_P1;PMS_P2;Temp;Humidity;BMP_temperature;BMP_pressure;BME280_temperature;BME280_humidity;BME280_pressure;Samples;Min_cycle;Max_cycle;Signal;HPM_P1;HPM_P2
2023/06/01 00:00:19;;;;;;;8.37;5.40;;;;;;;17.40;85.65;97158.66;4987836;28;20832;-69
2023/06/01 00:02:47;;;;;;;7.97;5.63;;;;;;;17.52;84.00;97165.69;4970046;28;20225;-70
2023/06/01 00:05:14;;;;;;;6.93;5.00;;;;;;;17.46;84.51;97155.59;4987909;28;20226;-72
2023/06/01 00:07:41;;;;;;;7.30;5.00;;;;;;;17.47;83.66;97155.53;4987393;28;20681;-70
2023/06/01 00:10:08;;;;;;;6.40;4.47;;;;;;;17.52;83.93;97173.53;4987559;28;20193;-69
2023/06/01 00:12:35;;;;;;;7.87;5.37;;;;;;;17.52;83.71;97166.53;4987460;28;20190;-72
2023/06/01 00:15:03;;;;;;;7.53;4.97;;;;;;;17.54;83.28;97166.41;4987315;28;20205;-70
2023/06/01 00:17:31;;;;;;;6.17;4.97;;;;;;;17.54;82.25;97169.88;4970133;28;20201;-72
2023/06/01 00:20:00;;;;;;;7.63;4.77;;;;;;;16.91;83.80;97163.88;4987320;28;20235;-70
2023/06/01 00:22:33;;;;;;;9.33;5.50;;;;;;;16.82;84.78;97169.75;4987601;28;20197;-69
2023/06/01 00:25:01;;;;;;;7.73;5.00;;;;;;;16.74;85.88;97169.44;4987104;28;20210;-69
2023/06/01 00:27:28;;;;;;;6.93;5.23;;;;;;;16.84;85.42;97154.78;4987520;28;20202;-68
2023/06/01 00:29:56;;;;;;;9.03;4.73;;;;;;;16.80;85.30;97155.94;4987367;28;20271;-68
2023/06/01 00:32:23;;;;;;;9.83;5.50;;;;;;;16.79;85.20;97159.50;4987347;28;20248;-70
2023/06/01 00:34:52;;;;;;;7.13;5.53;;;;;;;16.81;84.61;97165.47;4986298;28;20199;-69
2023/06/01 00:37:19;;;;;;;8.97;6.23;;;;;;;16.48;86.23;97170.31;4985831;28;20770;-69
2023/06/01 00:39:46;;;;;;;9.17;5.73;;;;;;;16.10;86.96;97165.00;4987316;28;21071;-71
2023/06/01 00:42:13;;;;;;;9.47;5.63;;;;;;;16.06;87.47;97164.38;4987203;28;20188;-70
2023/06/01 00:44:40;;;;;;;6.67;5.00;;;;;;;16.34;87.41;97173.03;4987099;28;20233;-70
2023/06/01 00:47:07;;;;;;;6.33;4.50;;;;;;;16.60;86.22;97167.75;4987028;28;20188;-69
2023/06/01 00:49:34;;;;;;;8.13;4.97;;;;;;;16.69;84.89;97166.31;4987110;28;20196;-70
2023/06/01 00:52:01;;;;;;;8.63;5.10;;;;;;;16.49;84.68;97162.41;4987688;28;20196;-70
2023/06/01 00:54:28;;;;;;;8.67;5.53;;;;;;;16.47;85.59;97164.25;4987188;28;20293;-69
2023/06/01 00:56:56;;;;;;;7.80;4.87;;;;;;;16.57;85.17;97154.06;4985935;28;20243;-69
2023/06/01 00:59:23;;;;;;;5.63;4.80;;;;;;;16.49;85.38;97165.03;4986970;28;20315;-69
2023/06/01 01:01:52;;;;;;;8.30;5.20;;;;;;;16.58;85.23;97160.94;4969699;28;20200;-69
2023/06/01 01:04:25;;;;;;;12.80;6.37;;;;;;;16.10;86.73;97155.41;4969590;28;20224;-67
2023/06/01 01:07:06;;;;;;;8.27;5.40;;;;;;;16.07;87.83;97163.44;4969581;28;20229;-68
2023/06/01 01:09:41;;;;;;;7.87;5.80;;;;;;;15.70;88.80;97161.56;4987153;28;20222;-71
2023/06/01 01:12:26;;;;;;;8.40;6.50;;;;;;;15.66;90.41;97160.06;4969732;28;20203;-69
2023/06/01 01:15:09;;;;;;;7.13;5.80;;;;;;;15.53;90.25;97151.34;4986989;28;20212;-69
2023/06/01 01:17:38;;;;;;;9.87;6.20;;;;;;;15.33;91.14;97131.69;4986987;28;20211;-69
2023/06/01 01:20:10;;;;;;;9.53;6.47;;;;;;;15.38;92.05;97154.88;4969830;28;20252;-76
2023/06/01 01:22:38;;;;;;;7.73;6.60;;;;;;;15.32;92.83;97161.34;4970200;28;20659;-72
2023/06/01 01:25:25;;;;;;;9.70;6.90;;;;;;;15.47;92.55;97167.41;4987225;28;20196;-75
2023/06/01 01:28:18;;;;;;;8.63;6.47;;;;;;;15.54;91.47;97146.97;4985865;28;20197;-76
2023/06/01 01:30:46;;;;;;;7.33;6.37;;;;;;;15.54;91.33;97160.03;4986851;28;20255;-71
2023/06/01 01:33:14;;;;;;;8.60;6.40;;;;;;;15.53;91.85;97164.41;4985679;28;20283;-74
2023/06/01 01:35:45;;;;;;;10.87;6.63;;;;;;;15.64;91.71;97161.94;4986070;28;20196;-75
2023/06/01 01:38:12;;;;;;;8.37;5.90;;;;;;;15.83;90.44;97151.13;4989538;28;20219;-70
2023/06/01 01:40:39;;;;;;;10.17;6.43;;;;;;;16.00;90.21;97154.34;4989044;28;20607;-73
2023/06/01 01:43:06;;;;;;;12.20;5.90;;;;;;;16.07;89.07;97170.47;4990526;28;20628;-75
2023/06/01 01:45:33;;;;;;;8.60;6.03;;;;;;;16.16;88.26;97165.47;4972928;28;20255;-72
2023/06/01 01:48:14;;;;;;;7.87;5.60;;;;;;;16.07;88.19;97154.78;4972696;28;20212;-71
2023/06/01 01:50:52;;;;;;;8.07;5.87;;;;;;;16.14;88.35;97162.09;4972799;28;20561;-76
2023/06/01 01:53:19;;;;;;;8.77;5.97;;;;;;;16.07;89.10;97163.44;4990459;28;20250;-72
2023/06/01 01:55:49;;;;;;;8.80;6.00;;;;;;;15.98;89.20;97164.06;4972866;28;20258;-73
2023/06/01 01:58:17;;;;;;;9.73;6.37;;;;;;;16.12;88.67;97158.75;4972676;28;20263;-72
2023/06/01 02:00:45;;;;;;;12.53;6.50;;;;;;;16.20;87.88;97155.63;4972896;28;20228;-71
2023/06/01 02:03:17;;;;;;;7.73;6.67;;;;;;;16.15;87.98;97158.56;4972630;28;20279;-71
2023/06/01 02:05:45;;;;;;;9.53;7.30;;;;;;;16.21;87.38;97147.72;4972887;28;20204;-77
2023/06/01 02:08:12;;;;;;;9.33;6.27;;;;;;;16.30;87.09;97164.53;4991043;28;20208;-73
2023/06/01 02:10:40;;;;;;;9.20;7.00;;;;;;;16.12;87.59;97164.00;4972665;28;20204;-70
2023/06/01 02:13:07;;;;;;;9.67;6.50;;;;;;;15.92;88.20;97159.22;4972205;28;20225;-72
2023/06/01 02:15:35;;;;;;;9.53;5.93;;;;;;;15.64;89.65;97161.94;4972264;28;20243;-69
2023/06/01 02:18:02;;;;;;;9.77;6.60;;;;;;;15.60;90.34;97164.84;4972190;28;20196;-71
2023/06/01 02:20:49;;;;;;;8.70;6.87;;;;;;;15.62;89.98;97162.97;4961451;28;20231;-72
2023/06/01 02:23:16;;;;;;;12.93;6.60;;;;;;;15.75;89.24;97175.16;4983653;28;20208;-71
2023/06/01 02:25:43;;;;;;;9.00;6.33;;;;;;;15.91;88.20;97165.38;4969223;28;20204;-70
2023/06/01 02:28:10;;;;;;;10.37;6.30;;;;;;;15.97;87.76;97170.19;4970156;28;20260;-72
2023/06/01 02:30:37;;;;;;;9.20;6.13;;;;;;;15.89;87.47;97156.81;4969881;28;20197;-70
2023/06/01 02:33:04;;;;;;;8.13;6.73;;;;;;;15.90;87.68;97174.16;4952508;28;20199;-75
2023/06/01 02:35:32;;;;;;;10.47;7.73;;;;;;;15.92;87.60;97174.06;4968588;28;20188;-72
2023/06/01 02:37:59;;;;;;;11.83;7.90;;;;;;;15.71;87.96;97178.03;4968502;28;20308;-73
2023/06/01 02:40:28;;;;;;;10.67;7.30;;;;;;;15.74;88.11;97178.72;4968656;28;20228;-71
2023/06/01 02:42:55;;;;;;;9.50;7.57;;;;;;;15.57;88.84;97178.94;4952200;28;20229;-70
2023/06/01 02:45:22;;;;;;;9.07;7.83;;;;;;;15.26;90.54;97174.78;4968568;28;20228;-69
2023/06/01 02:47:49;;;;;;;10.37;8.10;;;;;;;15.08;90.94;97181.13;4967191;28;20201;-69
2023/06/01 02:50:16;;;;;;;9.07;8.00;;;;;;;15.04;91.02;97181.41;4968109;28;20204;-69
2023/06/01 02:52:47;;;;;;;10.00;7.47;;;;;;;14.99;91.01;97188.66;4968345;28;20675;-69
2023/06/01 02:55:14;;;;;;;14.47;8.33;;;;;;;15.09;90.58;97192.38;4968008;28;20210;-69
2023/06/01 02:57:58;;;;;;;10.90;7.90;;;;;;;14.93;89.55;97192.47;4968234;28;20295;-70
2023/06/01 03:00:27;;;;;;;8.90;7.47;;;;;;;14.97;89.58;97190.53;4967914;28;20315;-69
2023/06/01 03:02:54;;;;;;;20.53;7.57;;;;;;;14.89;89.74;97192.75;4968192;28;20197;-69
2023/06/01 03:05:21;;;;;;;12.23;7.97;;;;;;;14.96;90.20;97194.06;4968135;28;20254;-69
2023/06/01 03:08:08;;;;;;;14.77;10.47;;;;;;;14.96;90.06;97189.66;4969203;28;20197;-69
2023/06/01 03:10:35;;;;;;;12.53;7.63;;;;;;;15.08;89.66;97193.31;4969181;28;20205;-69
2023/06/01 03:13:11;;;;;;;10.43;7.07;;;;;;;15.26;89.11;97187.81;4967851;28;20210;-69
2023/06/01 03:15:38;;;;;;;9.10;7.03;;;;;;;15.45;88.05;97187.53;4971854;28;20263;-69
2023/06/01 03:18:06;;;;;;;8.00;6.77;;;;;;;15.64;87.28;97179.38;4967560;28;20730;-69
2023/06/01 03:20:33;;;;;;;12.83;6.67;;;;;;;15.80;86.32;97185.31;4967810;28;20236;-70
2023/06/01 03:23:00;;;;;;;11.97;6.20;;;;;;;15.94;85.06;97183.47;4968239;28;20292;-68
2023/06/01 03:25:28;;;;;;;9.83;6.93;;;;;;;15.95;84.77;97186.94;4951462;28;20303;-69
2023/06/01 03:27:55;;;;;;;9.03;6.60;;;;;;;16.05;84.63;97182.78;4951609;28;20291;-69
2023/06/01 03:30:22;;;;;;;8.17;6.80;;;;;;;16.15;83.65;97183.84;4967636;28;20632;-68
2023/06/01 03:32:49;;;;;;;15.10;7.53;;;;;;;16.05;83.80;97188.81;4952374;28;20192;-69
2023/06/01 03:35:16;;;;;;;9.90;7.57;;;;;;;15.94;83.98;97180.88;4977192;28;20244;-68
2023/06/01 03:37:46;;;;;;;12.60;8.27;;;;;;;15.80;83.83;97185.31;4970435;28;20255;-68
2023/06/01 03:40:16;;;;;;;13.70;8.07;;;;;;;15.84;84.48;97179.78;4967484;28;20227;-70
2023/06/01 03:42:47;;;;;;;15.40;8.87;;;;;;;15.99;84.17;97184.00;4964847;28;20197;-71
2023/06/01 03:45:16;;;;;;;12.93;7.90;;;;;;;16.24;81.91;97183.22;4951369;28;20210;-69
2023/06/01 03:47:43;;;;;;;12.60;7.50;;;;;;;16.49;81.07;97190.28;4969566;28;20204;-71
2023/06/01 03:50:11;;;;;;;9.07;6.63;;;;;;;16.47;80.85;97184.31;4987903;28;20200;-69
2023/06/01 03:52:39;;;;;;;9.00;6.50;;;;;;;16.65;80.80;97188.38;4964916;28;20203;-69
2023/06/01 03:55:13;;;;;;;7.47;6.20;;;;;;;16.87;79.78;97197.28;4989762;28;20709;-70
2023/06/01 03:57:58;;;;;;;10.37;6.43;;;;;;;17.26;78.35;97191.06;5007032;28;20225;-71
2023/06/01 04:00:26;;;;;;;10.50;5.37;;;;;;;17.56;76.69;97202.03;4988949;28;20224;-71
2023/06/01 04:03:01;;;;;;;12.20;5.70;;;;;;;17.78;74.68;97202.16;4992985;28;20224;-79
2023/06/01 04:05:28;;;;;;;8.90;5.43;;;;;;;17.87;74.33;97203.28;4987454;28;20197;-70
2023/06/01 04:07:56;;;;;;;9.83;6.43;;;;;;;17.34;75.83;97199.22;4968649;28;20234;-70
2023/06/01 04:10:23;;;;;;;9.63;6.47;;;;;;;17.29;77.25;97196.06;4987253;28;20213;-70
2023/06/01 04:12:51;;;;;;;6.90;6.20;;;;;;;17.18;77.65;97184.69;4969561;28;20200;-71
2023/06/01 04:15:22;;;;;;;11.03;6.03;;;;;;;17.31;77.59;97199.41;4959492;28;20257;-70
2023/06/01 04:17:49;;;;;;;9.60;6.20;;;;;;;17.68;76.49;97198.53;4960536;28;20202;-70
2023/06/01 04:20:17;;;;;;;7.70;5.93;;;;;;;17.70;76.78;97201.88;4971477;28;20731;-70
2023/06/01 04:22:46;;;;;;;7.53;5.77;;;;;;;17.68;76.32;97203.75;5006511;28;20233;-75
2023/06/01 04:25:18;;;;;;;10.47;5.67;;;;;;;17.87;76.84;97198.03;5006966;28;20223;-73
2023/06/01 04:27:51;;;;;;;9.73;6.77;;;;;;;18.00;76.94;97205.84;5006766;28;20229;-77
2023/06/01 04:30:18;;;;;;;11.40;5.53;;;;;;;18.32;75.71;97188.63;4989074;28;20194;-74
2023/06/01 04:32:47;;;;;;;8.50;5.50;;;;;;;18.88;72.93;97200.09;4989086;28;20232;-72
2023/06/01 04:35:16;;;;;;;7.73;5.63;;;;;;;19.01;72.65;97192.97;4973408;28;20207;-76
2023/06/01 04:37:44;;;;;;;6.93;5.13;;;;;;;19.06;71.77;97190.84;4989736;28;20194;-73
2023/06/01 04:40:13;;;;;;;10.03;5.57;;;;;;;19.33;71.76;97192.16;4988909;28;20717;-70
2023/06/01 04:42:48;;;;;;;6.33;5.17;;;;;;;19.45;71.15;97193.81;4989013;28;20217;-69
2023/06/01 04:45:18;;;;;;;8.37;5.10;;;;;;;19.46;71.50;97198.16;4988763;28;20277;-70
2023/06/01 04:47:46;;;;;;;8.23;5.47;;;;;;;19.60;70.88;97198.84;4988900;28;20199;-69
2023/06/01 04:50:20;;;;;;;10.03;5.00;;;;;;;19.57;70.42;97196.47;4972695;28;20206;-69
2023/06/01 04:52:49;;;;;;;10.97;5.50;;;;;;;19.68;70.86;97204.34;4988811;28;20202;-70
2023/06/01 04:55:16;;;;;;;10.53;5.00;;;;;;;19.71;70.36;97206.72;4973062;28;20747;-70
2023/06/01 04:57:43;;;;;;;7.10;4.43;;;;;;;19.82;70.17;97198.81;5006398;28;20346;-71
2023/06/01 05:00:13;;;;;;;8.07;4.97;;;;;;;20.12;70.05;97199.81;4988733;28;20237;-69
2023/06/01 05:02:46;;;;;;;7.77;5.33;;;;;;;19.98;71.20;97209.75;4988970;28;20206;-70
2023/06/01 05:05:15;;;;;;;8.13;5.43;;;;;;;19.58;72.52;97204.22;5001694;28;20873;-69
2023/06/01 05:07:43;;;;;;;8.10;5.47;;;;;;;19.39;72.82;97215.31;4969618;28;20258;-68
2023/06/01 05:10:12;;;;;;;8.20;5.30;;;;;;;19.20;73.51;97204.56;4968678;28;20691;-70
2023/06/01 05:12:43;;;;;;;7.23;4.80;;;;;;;19.32;73.17;97206.25;4972775;28;20757;-69
2023/06/01 05:15:11;;;;;;;12.03;5.30;;;;;;;19.57;70.85;97213.06;4973096;28;20193;-70
2023/06/01 05:17:39;;;;;;;11.30;5.00;;;;;;;19.70;69.33;97205.88;4990507;28;20595;-69
2023/06/01 05:20:15;;;;;;;17.03;4.93;;;;;;;19.91;68.58;97200.69;4972507;28;20231;-70
2023/06/01 05:22:48;;;;;;;7.67;4.47;;;;;;;19.88;68.60;97208.84;4972647;28;20211;-72
2023/06/01 05:25:16;;;;;;;7.63;4.53;;;;;;;20.29;67.76;97214.25;4988942;28;20672;-72
2023/06/01 05:27:43;;;;;;;7.33;4.93;;;;;;;20.01;69.18;97218.22;4988729;28;20208;-75
2023/06/01 05:30:11;;;;;;;7.43;5.43;;;;;;;19.74;70.45;97209.09;4988958;28;20203;-71
2023/06/01 05:32:39;;;;;;;6.83;4.93;;;;;;;19.89;68.90;97208.69;4972401;28;20613;-69
2023/06/01 05:35:10;;;;;;;9.97;5.20;;;;;;;20.03;69.73;97212.88;4988773;28;20199;-72
2023/06/01 05:37:38;;;;;;;9.10;5.03;;;;;;;19.81;69.67;97202.38;4972306;28;20212;-69
2023/06/01 05:40:08;;;;;;;9.57;5.03;;;;;;;19.75;69.87;97206.34;4972257;28;20192;-70
2023/06/01 05:42:37;;;;;;;8.90;4.73;;;;;;;20.09;69.63;97204.47;4972362;28;20749;-73
2023/06/01 05:45:05;;;;;;;10.60;5.40;;;;;;;20.07;68.44;97209.03;4972277;28;20199;-71
2023/06/01 05:47:32;;;;;;;7.07;5.97;;;;;;;20.18;69.00;97203.72;4972269;28;20211;-74
2023/06/01 05:50:00;;;;;;;9.63;5.53;;;;;;;20.05;68.99;97203.06;4988256;28;20709;-70
2023/06/01 05:52:27;;;;;;;8.73;5.37;;;;;;;20.07;69.55;97206.41;4988770;28;20207;-71
2023/06/01 05:54:55;;;;;;;8.50;4.67;;;;;;;20.49;67.97;97208.16;4972390;28;20186;-70
2023/06/01 05:57:22;;;;;;;12.90;5.67;;;;;;;20.96;67.30;97205.03;4972077;28;20634;-70
2023/06/01 05:59:49;;;;;;;13.80;5.43;;;;;;;21.67;64.96;97214.69;4989605;28;20995;-72
2023/06/01 06:02:16;;;;;;;9.30;4.93;;;;;;;21.66;63.93;97215.63;4971927;28;20750;-77
2023/06/01 06:04:43;;;;;;;12.90;4.73;;;;;;;21.93;64.28;97211.59;4986377;28;20188;-78
2023/06/01 06:07:11;;;;;;;9.77;5.93;;;;;;;21.93;63.95;97220.31;4968532;28;20227;-78
2023/06/01 06:09:38;;;;;;;8.87;4.87;;;;;;;22.36;63.44;97223.44;4972054;28;20228;-78
2023/06/01 06:12:06;;;;;;;6.73;4.77;;;;;;;22.24;61.69;97213.16;4989171;28;20555;-72
2023/06/01 06:14:33;;;;;;;8.53;5.00;;;;;;;22.30;61.34;97218.72;4989173;28;20202;-73
2023/06/01 06:17:00;;;;;;;7.20;4.90;;;;;;;21.79;62.82;97220.69;4989368;28;20284;-70
2023/06/01 06:19:27;;;;;;;9.43;4.53;;;;;;;21.69;63.81;97206.63;4989310;28;20291;-74
2023/06/01 06:21:54;;;;;;;8.40;5.40;;;;;;;21.57;64.41;97215.63;4971144;28;20229;-74
2023/06/01 06:24:22;;;;;;;9.97;5.00;;;;;;;21.78;63.37;97216.38;4971513;28;20691;-73
2023/06/01 06:26:49;;;;;;;5.37;4.70;;;;;;;22.06;62.48;97222.72;4988649;28;20189;-74
2023/06/01 06:29:16;;;;;;;6.60;4.93;;;;;;;22.07;60.86;97225.22;4988720;28;20268;-70
2023/06/01 06:31:44;;;;;;;7.33;4.13;;;;;;;22.33;60.23;97234.28;4988883;28;20289;-69
2023/06/01 06:34:12;;;;;;;7.70;5.17;;;;;;;21.32;60.40;97108.03;4971285;28;20755;-72
2023/06/01 06:36:40;;;;;;;7.30;4.57;;;;;;;22.33;59.78;97223.72;4971427;28;20280;-73
2023/06/01 06:39:07;;;;;;;10.23;4.67;;;;;;;22.46;59.42;97187.31;4989142;28;20197;-73
2023/06/01 06:41:34;;;;;;;12.10;5.23;;;;;;;23.11;58.37;97226.19;4988581;28;20330;-73
2023/06/01 06:44:01;;;;;;;10.93;5.17;;;;;;;23.43;57.92;97228.50;4989373;28;20273;-79
2023/06/01 06:46:28;;;;;;;10.33;5.00;;;;;;;23.53;56.77;97233.75;4989068;28;20203;-78
2023/06/01 06:48:55;;;;;;;6.20;4.30;;;;;;;22.98;58.22;97230.13;4970682;28;20214;-75
2023/06/01 06:51:22;;;;;;;9.13;4.43;;;;;;;22.83;58.96;97223.63;4970772;28;20628;-79
2023/06/01 06:53:49;;;;;;;5.87;4.17;;;;;;;23.14;57.86;97225.91;4987950;28;20790;-78
2023/06/01 06:56:16;;;;;;;6.90;5.23;;;;;;;22.96;58.50;97237.34;4988268;28;20282;-79
2023/06/01 06:58:45;;;;;;;8.13;5.70;;;;;;;23.50;57.55;97219.00;4987824;28;20726;-78
2023/06/01 07:01:26;;;;;;;5.73;3.93;;;;;;;23.84;55.93;97214.81;4987733;28;20220;-75
2023/06/01 07:03:55;;;;;;;6.67;4.30;;;;;;;24.01;55.46;97221.09;4987571;28;20205;-76
2023/06/01 07:06:23;;;;;;;11.03;5.00;;;;;;;24.21;55.25;97235.94;4970555;28;20275;-72
2023/06/01 07:08:50;;;;;;;9.27;5.50;;;;;;;23.91;54.74;97229.09;4970211;28;20797;-73
2023/06/01 07:11:18;;;;;;;7.00;4.87;;;;;;;23.49;56.18;97233.22;4970436;28;20661;-73
2023/06/01 07:13:45;;;;;;;5.60;4.30;;;;;;;23.86;54.71;97231.38;4988141;28;20197;-74
2023/06/01 07:16:12;;;;;;;8.37;5.20;;;;;;;24.28;53.45;97237.00;4970135;28;20192;-73
2023/06/01 07:18:40;;;;;;;7.43;4.60;;;;;;;23.99;52.90;97231.00;4987149;28;20209;-72
2023/06/01 07:21:07;;;;;;;8.47;4.73;;;;;;;24.24;51.90;97231.16;4969780;28;20233;-73
2023/06/01 07:23:34;;;;;;;6.40;4.30;;;;;;;23.88;51.70;97224.13;4987049;28;20329;-71
2023/06/01 07:26:01;;;;;;;8.93;4.10;;;;;;;23.90;52.15;97229.28;4987104;28;20208;-72
2023/06/01 07:28:28;;;;;;;7.03;4.30;;;;;;;23.83;51.57;97225.53;4987223;28;20244;-73
2023/06/01 07:30:55;;;;;;;9.53;4.07;;;;;;;24.03;49.13;97225.31;4987492;28;20248;-72
2023/06/01 07:33:22;;;;;;;5.90;4.90;;;;;;;24.14;49.87;97221.63;4953096;28;20643;-73
2023/06/01 07:36:27;;;;;;;6.37;3.90;;;;;;;24.14;48.82;97219.81;4987123;28;20192;-75
2023/06/01 07:38:54;;;;;;;7.27;3.77;;;;;;;24.46;48.74;97215.84;4934287;28;20216;-72
2023/06/01 07:41:21;;;;;;;7.90;3.80;;;;;;;24.73;47.06;97207.81;4950584;28;20230;-76
2023/06/01 07:43:51;;;;;;;8.40;4.23;;;;;;;24.65;46.82;97210.34;4967792;28;20211;-73
2023/06/01 07:46:18;;;;;;;5.67;3.67;;;;;;;24.65;47.01;97213.00;4967947;28;20196;-76
2023/06/01 07:49:25;;;;;;;4.30;3.90;;;;;;;24.26;46.05;97183.38;4950375;28;20238;-73
2023/06/01 07:52:07;;;;;;;10.47;6.30;;;;;;;24.81;46.02;97215.84;4984434;28;20206;-74
2023/06/01 07:55:15;;;;;;;7.63;4.60;;;;;;;25.14;44.75;97214.25;4959500;28;20203;-73
2023/06/01 07:57:56;;;;;;;7.57;4.40;;;;;;;25.56;43.00;97213.38;4985801;28;20670;-74
2023/06/01 08:00:23;;;;;;;8.47;4.90;;;;;;;25.55;42.40;97213.53;4970006;28;20198;-73
2023/06/01 08:02:51;;;;;;;5.83;3.80;;;;;;;25.55;44.96;97211.72;4987101;28;20740;-76
2023/06/01 08:05:18;;;;;;;5.00;4.10;;;;;;;25.55;44.53;97211.72;4987186;28;20201;-78
2023/06/01 08:07:45;;;;;;;10.00;5.00;;;;;;;25.45;45.77;97210.16;4987067;28;20201;-76
2023/06/01 08:10:15;;;;;;;6.10;3.87;;;;;;;25.59;44.26;97207.75;4985763;28;20658;-74
2023/06/01 08:12:42;;;;;;;6.03;3.77;;;;;;;25.78;42.91;97204.03;4986541;28;20725;-79
2023/06/01 08:15:12;;;;;;;4.70;3.43;;;;;;;25.59;40.61;97189.19;4968992;28;20281;-74
2023/06/01 08:17:40;;;;;;;7.27;3.60;;;;;;;25.74;41.70;97192.03;4986246;28;20199;-75
2023/06/01 08:20:10;;;;;;;11.40;4.23;;;;;;;25.83;41.86;97209.66;4986572;28;20209;-71
2023/06/01 08:22:38;;;;;;;9.17;4.60;;;;;;;25.65;42.20;97199.16;4986911;28;20637;-72
2023/06/01 08:25:06;;;;;;;8.00;3.73;;;;;;;25.71;43.77;97195.88;4969267;28;20203;-73
2023/06/01 08:27:33;;;;;;;14.57;8.50;;;;;;;25.78;41.91;97188.09;4969610;28;20210;-73
2023/06/01 08:30:01;;;;;;;6.57;3.90;;;;;;;25.59;42.11;97165.31;4953576;28;20199;-75
2023/06/01 08:32:29;;;;;;;7.73;4.13;;;;;;;26.02;42.72;97187.34;4986335;28;20204;-72
2023/06/01 08:34:57;;;;;;;7.07;3.87;;;;;;;26.01;41.59;97196.31;4986634;28;20262;-72
2023/06/01 08:37:24;;;;;;;5.30;4.80;;;;;;;25.77;44.17;97189.09;4986461;28;20203;-75
2023/06/01 08:39:52;;;;;;;6.30;3.60;;;;;;;25.81;44.73;97191.25;4986458;28;20735;-76
2023/06/01 08:42:45;;;;;;;8.90;3.77;;;;;;;25.76;45.07;97185.59;4986272;28;20220;-74
2023/06/01 08:45:13;;;;;;;6.00;3.63;;;;;;;25.47;45.73;97187.78;4957664;28;20208;-75
2023/06/01 08:47:41;;;;;;;9.67;3.87;;;;;;;25.30;45.15;97164.81;4956773;28;20753;-72
2023/06/01 08:50:10;;;;;;;6.87;3.57;;;;;;;25.86;42.98;97176.69;4990642;28;20710;-73
2023/06/01 08:52:41;;;;;;;4.73;3.10;;;;;;;25.76;41.81;97148.44;4973609;28;20206;-74
2023/06/01 08:55:08;;;;;;;6.80;5.10;;;;;;;25.66;41.18;97168.97;4972978;28;20214;-75
2023/06/01 08:57:35;;;;;;;8.83;3.70;;;;;;;25.68;41.20;97158.19;4990075;28;20224;-77
2023/06/01 09:00:04;;;;;;;7.03;3.80;;;;;;;25.83;41.61;97154.78;4972491;28;20283;-77
2023/06/01 09:02:31;;;;;;;4.00;3.03;;;;;;;25.99;41.68;97164.59;4990379;28;20234;-76
2023/06/01 09:05:01;;;;;;;5.27;3.80;;;;;;;25.91;42.15;97169.03;4972913;28;20214;-72
2023/06/01 09:07:31;;;;;;;10.00;3.73;;;;;;;25.78;41.64;97178.28;4989908;28;20202;-78
2023/06/01 09:10:01;;;;;;;6.97;3.60;;;;;;;25.23;43.80;97162.94;4989538;28;20223;-74
2023/06/01 09:12:31;;;;;;;6.20;4.10;;;;;;;25.57;43.04;97166.47;4989790;28;20231;-73
2023/06/01 09:15:03;;;;;;;4.43;2.73;;;;;;;24.86;43.68;97165.84;4989289;28;20189;-73
2023/06/01 09:17:30;;;;;;;4.70;2.90;;;;;;;25.32;42.67;97160.19;4989217;28;20681;-74
2023/06/01 09:19:58;;;;;;;6.50;3.40;;;;;;;25.61;41.76;97163.34;4971963;28;20350;-73
2023/06/01 09:22:38;;;;;;;5.13;3.57;;;;;;;25.60;40.71;97161.66;4988013;28;20234;-74
2023/06/01 09:25:06;;;;;;;7.93;3.77;;;;;;;25.55;41.00;97155.19;4990005;28;20210;-72
2023/06/01 09:27:53;;;;;;;4.97;3.30;;;;;;;25.51;40.64;97159.94;4989939;28;20204;-75
2023/06/01 09:30:23;;;;;;;8.67;3.27;;;;;;;25.62;39.43;97162.31;4989549;28;20203;-74
2023/06/01 09:33:06;;;;;;;6.23;3.30;;;;;;;25.72;40.10;97160.38;4989643;28;20198;-71
2023/06/01 09:35:44;;;;;;;4.97;3.53;;;;;;;25.80;40.46;97157.75;4989580;28;20223;-72
2023/06/01 09:38:19;;;;;;;6.87;4.00;;;;;;;25.79;40.06;97155.25;4989087;28;20521;-71
2023/06/01 09:40:59;;;;;;;6.50;3.77;;;;;;;25.81;40.47;97148.81;4989519;28;20209;-72
2023/06/01 09:43:27;;;;;;;5.70;3.80;;;;;;;25.87;40.94;97136.69;4971883;28;20322;-74
2023/06/01 09:46:13;;;;;;;7.80;3.57;;;;;;;25.95;41.89;97146.50;4989381;28;20212;-74
2023/06/01 09:48:45;;;;;;;5.80;4.00;;;;;;;25.79;41.50;97142.00;4988102;28;20199;-74
2023/06/01 09:51:29;;;;;;;4.60;3.40;;;;;;;26.03;40.82;97112.03;4989155;28;20208;-73
2023/06/01 09:53:56;;;;;;;6.47;3.83;;;;;;;26.11;42.45;97154.53;4989445;28;20935;-73
2023/06/01 09:56:23;;;;;;;6.63;4.20;;;;;;;25.97;42.81;97141.84;4967800;28;20254;-70
2023/06/01 09:59:07;;;;;;;4.70;3.70;;;;;;;25.21;41.10;97115.38;4968105;28;20201;-74
2023/06/01 10:01:41;;;;;;;7.10;3.77;;;;;;;25.57;40.54;97140.78;4967540;28;20820;-74
2023/06/01 10:04:11;;;;;;;4.37;3.70;;;;;;;25.77;40.93;97144.81;4969597;28;20634;-72
2023/06/01 10:06:40;;;;;;;3.53;2.87;;;;;;;25.86;40.27;97126.25;4970029;28;20204;-77
2023/06/01 10:09:18;;;;;;;4.93;3.50;;;;;;;25.53;40.47;97117.38;4984478;28;20613;-72
2023/06/01 10:11:47;;;;;;;17.03;3.97;;;;;;;26.08;39.77;97134.47;4968094;28;20657;-71
2023/06/01 10:14:16;;;;;;;5.40;3.83;;;;;;;26.24;39.69;97142.44;4967981;28;20223;-73
2023/06/01 10:16:43;;;;;;;4.60;3.60;;;;;;;26.29;40.03;97139.28;4969878;28;20259;-75
2023/06/01 10:19:12;;;;;;;5.73;3.67;;;;;;;26.29;39.59;97139.28;4969238;28;20804;-76
2023/06/01 10:21:42;;;;;;;7.10;4.17;;;;;;;26.14;37.59;97117.03;4984436;28;20228;-71
2023/06/01 10:24:09;;;;;;;6.47;3.67;;;;;;;25.82;39.83;97107.97;4970816;28;20235;-73
2023/06/01 10:26:46;;;;;;;5.60;4.37;;;;;;;25.97;42.05;97126.75;4968205;28;20213;-71
2023/06/01 10:29:18;;;;;;;5.73;4.43;;;;;;;25.74;41.10;97105.31;4969339;28;20193;-72
2023/06/01 10:31:45;;;;;;;6.30;4.53;;;;;;;26.11;40.61;97117.38;4969089;28;20614;-75
2023/06/01 10:34:13;;;;;;;8.07;4.83;;;;;;;26.41;40.07;97119.38;4967719;28;20266;-72
2023/06/01 10:36:53;;;;;;;7.10;4.13;;;;;;;26.47;38.66;97126.69;4983273;28;20553;-72
2023/06/01 10:39:33;;;;;;;8.23;5.00;;;;;;;26.69;38.39;97112.72;4968967;28;20645;-73
2023/06/01 10:42:13;;;;;;;5.30;3.67;;;;;;;26.92;38.87;97111.03;4983158;28;20228;-73
2023/06/01 10:44:43;;;;;;;9.10;3.60;;;;;;;26.97;38.92;97106.06;4968799;28;20196;-72
2023/06/01 10:47:10;;;;;;;4.93;3.73;;;;;;;26.53;40.00;97096.78;4968584;28;20189;-73
2023/06/01 10:49:46;;;;;;;5.00;3.97;;;;;;;26.79;38.88;97105.41;4967832;28;20195;-71
2023/06/01 10:52:34;;;;;;;5.93;4.07;;;;;;;27.09;37.55;97098.53;4968203;28;20219;-71
2023/06/01 10:55:10;;;;;;;6.60;4.93;;;;;;;27.39;36.54;97087.97;4968826;28;20935;-73
2023/06/01 10:57:43;;;;;;;4.77;3.10;;;;;;;27.55;35.40;97089.75;4983032;28;20228;-75
2023/06/01 11:00:10;;;;;;;7.20;3.90;;;;;;;27.02;38.01;97103.72;4988345;28;20188;-73
2023/06/01 11:02:57;;;;;;;8.97;4.57;;;;;;;27.04;38.16;97069.78;4987646;28;20599;-74
2023/06/01 11:05:50;;;;;;;5.60;3.73;;;;;;;27.28;37.35;97069.72;4948219;28;20207;-76
2023/06/01 11:08:17;;;;;;;7.60;3.67;;;;;;;26.78;36.94;97085.16;4987296;28;20636;-72
2023/06/01 11:10:54;;;;;;;4.87;3.30;;;;;;;26.91;36.54;97096.09;4985651;28;20203;-75
2023/06/01 11:13:25;;;;;;;4.93;3.37;;;;;;;26.86;36.16;97081.66;4969775;28;20199;-76
2023/06/01 11:16:09;;;;;;;4.97;3.43;;;;;;;27.01;35.98;97069.31;4970129;28;20699;-77
2023/06/01 11:19:00;;;;;;;8.50;4.30;;;;;;;26.98;37.50;97069.66;4987274;28;20196;-76
2023/06/01 11:21:37;;;;;;;6.00;4.07;;;;;;;26.60;37.11;97074.69;4987687;28;20299;-78
2023/06/01 11:24:17;;;;;;;8.10;3.60;;;;;;;26.74;36.81;97080.34;4987105;28;20208;-74
2023/06/01 11:26:47;;;;;;;6.37;4.33;;;;;;;26.95;36.91;97054.88;4987708;28;20604;-75
2023/06/01 11:29:15;;;;;;;6.37;3.80;;;;;;;27.30;36.87;97070.38;4988073;28;20282;-72
2023/06/01 11:31:56;;;;;;;4.80;3.70;;;;;;;27.35;36.37;97062.72;5084152;27;20568;-70
2023/06/01 11:34:41;;;;;;;4.47;3.20;;;;;;;27.01;36.28;97053.38;5084049;28;20191;-71
2023/06/01 11:37:14;;;;;;;5.57;3.60;;;;;;;26.63;36.92;97050.44;5082847;28;20632;-76
2023/06/01 11:39:42;;;;;;;4.03;3.50;;;;;;;26.77;36.53;97043.63;5084252;28;20586;-74
2023/06/01 11:42:10;;;;;;;5.87;3.67;;;;;;;26.78;36.86;97034.66;5063955;28;20193;-73
2023/06/01 11:44:42;;;;;;;6.37;3.60;;;;;;;27.07;38.00;97026.94;5084375;28;20258;-78
2023/06/01 11:47:11;;;;;;;7.43;3.50;;;;;;;27.34;37.90;97029.16;5065455;28;20284;-75